sensor_id;sensor_type;location;lat;lon;timestamp;pressure;altitude;pressure_sealevel;temperature;humidity
75146;BME280;63641;46.526;24.612;2023-07-24T00:00:28;97343.81;;;15.25;71.10
75146;BME280;63641;46.526;24.612;2023-07-24T00:02:56;97351.84;;;15.30;71.18
75146;BME280;63641;46.526;24.612;2023-07-24T00:05:23;97333.34;;;15.18;71.32
75146;BME280;63641;46.526;24.612;2023-07-24T00:07:50;97344.91;;;15.23;71.50
75146;BME280;63641;46.526;24.612;2023-07-24T00:10:16;97335.88;;;15.14;71.73
75146;BME280;63641;46.526;24.612;2023-07-24T00:12:43;97312.53;;;15.00;71.51
75146;BME280;63641;46.526;24.612;2023-07-24T00:15:10;97325.59;;;15.11;71.60
75146;BME280;63641;46.526;24.612;2023-07-24T00:17:37;97335.09;;;15.14;71.35
75146;BME280;63641;46.526;24.612;2023-07-24T00:20:05;97327.81;;;15.09;71.58
75146;BME280;63641;46.526;24.612;2023-07-24T00:22:32;97334.72;;;15.07;71.68
75146;BME280;63641;46.526;24.612;2023-07-24T00:24:59;97328.94;;;15.08;71.70
75146;BME280;63641;46.526;24.612;2023-07-24T00:27:25;97356.88;;;15.14;71.50
75146;BME280;63641;46.526;24.612;2023-07-24T00:29:52;97360.09;;;15.16;71.71
75146;BME280;63641;46.526;24.612;2023-07-24T00:32:19;97364.75;;;15.15;71.67
75146;BME280;63641;46.526;24.612;2023-07-24T00:34:46;97352.06;;;15.11;71.72
75146;BME280;63641;46.526;24.612;2023-07-24T00:37:13;97330.31;;;14.97;71.56
75146;BME280;63641;46.526;24.612;2023-07-24T00:39:39;97331.25;;;14.92;71.67
75146;BME280;63641;46.526;24.612;2023-07-24T00:42:06;97340.28;;;15.02;71.56
75146;BME280;63641;46.526;24.612;2023-07-24T00:44:33;97323.06;;;14.92;71.71
75146;BME280;63641;46.526;24.612;2023-07-24T00:47:00;97338.81;;;14.95;71.45
75146;BME280;63641;46.526;24.612;2023-07-24T00:49:27;97323.50;;;14.86;71.77
75146;BME280;63641;46.526;24.612;2023-07-24T00:51:54;97314.47;;;14.77;71.90
75146;BME280;63641;46.526;24.612;2023-07-24T00:54:21;97319.91;;;14.77;71.89
75146;BME280;63641;46.526;24.612;2023-07-24T00:56:48;97323.13;;;14.79;71.88
75146;BME280;63641;46.526;24.612;2023-07-24T00:59:16;97338.53;;;14.83;71.94
75146;BME280;63641;46.526;24.612;2023-07-24T01:01:42;97326.78;;;14.74;72.17
75146;BME280;63641;46.526;24.612;2023-07-24T01:04:10;97311.47;;;14.64;72.15
75146;BME280;63641;46.526;24.612;2023-07-24T01:06:37;97308.53;;;14.61;72.30
75146;BME280;63641;46.526;24.612;2023-07-24T01:09:05;97321.75;;;14.67;72.40
75146;BME280;63641;46.526;24.612;2023-07-24T01:14:46;97328.78;;;14.68;72.38
75146;BME280;63641;46.526;24.612;2023-07-24T01:17:15;97320.88;;;14.58;72.56
75146;BME280;63641;46.526;24.612;2023-07-24T01:19:49;97340.28;;;14.65;72.62
75146;BME280;63641;46.526;24.612;2023-07-24T01:25:00;97333.97;;;14.56;72.94
75146;BME280;63641;46.526;24.612;2023-07-24T01:27:30;97332.66;;;14.54;72.89
75146;BME280;63641;46.526;24.612;2023-07-24T01:29:57;97326.13;;;14.41;72.67
75146;BME280;63641;46.526;24.612;2023-07-24T01:32:24;97337.69;;;14.46;72.98
75146;BME280;63641;46.526;24.612;2023-07-24T01:34:52;97339.00;;;14.49;72.95
75146;BME280;63641;46.526;24.612;2023-07-24T01:37:21;97319.97;;;14.35;72.81
75146;BME280;63641;46.526;24.612;2023-07-24T01:39:49;97314.66;;;14.30;72.89
75146;BME280;63641;46.526;24.612;2023-07-24T01:42:16;97346.97;;;14.45;73.17
75146;BME280;63641;46.526;24.612;2023-07-24T01:44:44;97327.94;;;14.32;73.04
75146;BME280;63641;46.526;24.612;2023-07-24T01:47:10;97314.47;;;14.26;73.13
75146;BME280;63641;46.526;24.612;2023-07-24T01:49:37;97315.56;;;14.25;73.09
75146;BME280;63641;46.526;24.612;2023-07-24T01:52:05;97301.78;;;14.22;72.83
75146;BME280;63641;46.526;24.612;2023-07-24T01:54:31;97334.91;;;14.38;73.04
75146;BME280;63641;46.526;24.612;2023-07-24T01:56:58;97327.47;;;14.30;73.12
75146;BME280;63641;46.526;24.612;2023-07-24T01:59:25;97324.53;;;14.26;73.07
75146;BME280;63641;46.526;24.612;2023-07-24T02:01:52;97348.31;;;14.34;73.29
75146;BME280;63641;46.526;24.612;2023-07-24T02:04:19;97335.72;;;14.24;73.21
75146;BME280;63641;46.526;24.612;2023-07-24T02:06:49;97340.97;;;14.21;73.08
75146;BME280;63641;46.526;24.612;2023-07-24T02:09:19;97351.44;;;14.27;73.22
75146;BME280;63641;46.526;24.612;2023-07-24T02:11:45;97324.66;;;14.07;73.18
75146;BME280;63641;46.526;24.612;2023-07-24T02:14:13;97328.06;;;14.13;73.04
75146;BME280;63641;46.526;24.612;2023-07-24T02:16:40;97320.84;;;14.08;73.18
75146;BME280;63641;46.526;24.612;2023-07-24T02:19:07;97328.06;;;14.13;73.12
75146;BME280;63641;46.526;24.612;2023-07-24T02:21:34;97335.13;;;14.14;73.44
75146;BME280;63641;46.526;24.612;2023-07-24T02:24:01;97303.09;;;13.97;73.23
75146;BME280;63641;46.526;24.612;2023-07-24T02:26:27;97321.44;;;14.05;73.42
75146;BME280;63641;46.526;24.612;2023-07-24T02:28:55;97343.41;;;14.09;73.34
75146;BME280;63641;46.526;24.612;2023-07-24T02:31:22;97338.28;;;14.07;73.22
75146;BME280;63641;46.526;24.612;2023-07-24T02:33:48;97323.88;;;13.93;72.92
75146;BME280;63641;46.526;24.612;2023-07-24T02:36:15;97322.25;;;13.92;73.50
75146;BME280;63641;46.526;24.612;2023-07-24T02:38:42;97336.16;;;14.04;73.63
75146;BME280;63641;46.526;24.612;2023-07-24T02:41:09;97338.66;;;14.00;73.43
75146;BME280;63641;46.526;24.612;2023-07-24T02:43:36;97320.44;;;13.87;73.83
75146;BME280;63641;46.526;24.612;2023-07-24T02:46:07;97341.19;;;13.97;73.71
75146;BME280;63641;46.526;24.612;2023-07-24T02:48:34;97353.28;;;14.05;73.85
75146;BME280;63641;46.526;24.612;2023-07-24T02:51:02;97359.31;;;14.01;73.77
75146;BME280;63641;46.526;24.612;2023-07-24T02:53:28;97333.75;;;13.89;73.49
75146;BME280;63641;46.526;24.612;2023-07-24T02:55:55;97338.59;;;13.92;73.58
75146;BME280;63641;46.526;24.612;2023-07-24T02:58:23;97341.38;;;13.87;73.60
75146;BME280;63641;46.526;24.612;2023-07-24T03:00:49;97346.03;;;13.86;73.59
75146;BME280;63641;46.526;24.612;2023-07-24T03:03:16;97338.25;;;13.80;73.54
75146;BME280;63641;46.526;24.612;2023-07-24T03:05:43;97337.47;;;13.79;73.60
75146;BME280;63641;46.526;24.612;2023-07-24T03:08:10;97352.47;;;13.90;73.74
75146;BME280;63641;46.526;24.612;2023-07-24T03:10:40;97343.69;;;13.80;73.94
75146;BME280;63641;46.526;24.612;2023-07-24T03:13:08;97349.06;;;13.85;73.70
75146;BME280;63641;46.526;24.612;2023-07-24T03:15:34;97358.72;;;13.91;73.68
75146;BME280;63641;46.526;24.612;2023-07-24T03:18:01;97343.09;;;13.83;73.71
75146;BME280;63641;46.526;24.612;2023-07-24T03:20:29;97354.91;;;13.92;73.93
75146;BME280;63641;46.526;24.612;2023-07-24T03:22:55;97339.38;;;13.78;73.89
75146;BME280;63641;46.526;24.612;2023-07-24T03:25:22;97343.63;;;13.85;74.14
75146;BME280;63641;46.526;24.612;2023-07-24T03:27:50;97337.06;;;13.86;73.99
75146;BME280;63641;46.526;24.612;2023-07-24T03:30:17;97322.53;;;13.76;74.25
75146;BME280;63641;46.526;24.612;2023-07-24T03:32:43;97334.34;;;13.86;74.10
75146;BME280;63641;46.526;24.612;2023-07-24T03:35:10;97320.34;;;13.78;74.27
75146;BME280;63641;46.526;24.612;2023-07-24T03:37:37;97319.22;;;13.80;74.16
75146;BME280;63641;46.526;24.612;2023-07-24T03:40:04;97341.31;;;13.92;74.13
75146;BME280;63641;46.526;24.612;2023-07-24T03:42:32;97346.91;;;13.95;74.11
75146;BME280;63641;46.526;24.612;2023-07-24T03:44:59;97345.63;;;13.93;74.63
75146;BME280;63641;46.526;24.612;2023-07-24T03:47:26;97339.47;;;13.87;74.52
75146;BME280;63641;46.526;24.612;2023-07-24T03:49:53;97351.47;;;14.00;74.52
75146;BME280;63641;46.526;24.612;2023-07-24T03:52:20;97350.88;;;14.03;74.78
75146;BME280;63641;46.526;24.612;2023-07-24T03:54:47;97332.50;;;13.95;74.95
75146;BME280;63641;46.526;24.612;2023-07-24T03:57:14;97340.38;;;14.10;74.83
75146;BME280;63641;46.526;24.612;2023-07-24T03:59:41;97337.56;;;14.01;74.80
75146;BME280;63641;46.526;24.612;2023-07-24T04:02:07;97343.00;;;14.15;75.16
75146;BME280;63641;46.526;24.612;2023-07-24T04:04:37;97345.13;;;14.18;75.03
75146;BME280;63641;46.526;24.612;2023-07-24T04:07:04;97325.47;;;14.08;75.26
75146;BME280;63641;46.526;24.612;2023-07-24T04:09:31;97334.44;;;14.22;75.33
75146;BME280;63641;46.526;24.612;2023-07-24T04:11:58;97340.56;;;14.27;75.70
75146;BME280;63641;46.526;24.612;2023-07-24T04:14:25;97342.34;;;14.32;75.81
75146;BME280;63641;46.526;24.612;2023-07-24T04:16:51;97325.84;;;14.29;75.99
75146;BME280;63641;46.526;24.612;2023-07-24T04:19:19;97342.66;;;14.44;75.83
75146;BME280;63641;46.526;24.612;2023-07-24T04:21:46;97324.22;;;14.41;76.17
75146;BME280;63641;46.526;24.612;2023-07-24T04:24:12;97326.00;;;14.46;76.10
75146;BME280;63641;46.526;24.612;2023-07-24T04:26:40;97348.59;;;14.60;76.48
75146;BME280;63641;46.526;24.612;2023-07-24T04:29:07;97336.69;;;14.56;76.41
75146;BME280;63641;46.526;24.612;2023-07-24T04:31:33;97346.25;;;14.67;76.70
75146;BME280;63641;46.526;24.612;2023-07-24T04:34:01;97351.56;;;14.72;76.63
75146;BME280;63641;46.526;24.612;2023-07-24T04:36:27;97328.59;;;14.65;77.19
75146;BME280;63641;46.526;24.612;2023-07-24T04:38:54;97326.38;;;14.67;77.10
75146;BME280;63641;46.526;24.612;2023-07-24T04:41:22;97338.16;;;14.76;77.22
75146;BME280;63641;46.526;24.612;2023-07-24T04:43:49;97334.81;;;14.79;76.98
75146;BME280;63641;46.526;24.612;2023-07-24T04:46:15;97344.25;;;14.95;77.43
75146;BME280;63641;46.526;24.612;2023-07-24T04:48:42;97330.31;;;14.97;77.23
75146;BME280;63641;46.526;24.612;2023-07-24T04:51:08;97341.94;;;15.11;77.23
75146;BME280;63641;46.526;24.612;2023-07-24T04:53:35;97346.97;;;15.18;77.33
75146;BME280;63641;46.526;24.612;2023-07-24T04:56:05;97332.22;;;15.19;77.49
75146;BME280;63641;46.526;24.612;2023-07-24T04:58:32;97344.28;;;15.27;77.57
75146;BME280;63641;46.526;24.612;2023-07-24T05:01:03;97328.38;;;15.20;77.68
75146;BME280;63641;46.526;24.612;2023-07-24T05:03:31;97357.84;;;15.40;77.71
75146;BME280;63641;46.526;24.612;2023-07-24T05:05:58;97347.91;;;15.36;77.93
75146;BME280;63641;46.526;24.612;2023-07-24T05:08:24;97338.97;;;15.44;78.09
75146;BME280;63641;46.526;24.612;2023-07-24T05:10:56;97337.53;;;15.46;77.86
75146;BME280;63641;46.526;24.612;2023-07-24T05:13:23;97343.81;;;15.56;77.91
75146;BME280;63641;46.526;24.612;2023-07-24T05:15:50;97343.50;;;15.57;77.88
75146;BME280;63641;46.526;24.612;2023-07-24T05:18:16;97360.63;;;15.72;78.18
75146;BME280;63641;46.526;24.612;2023-07-24T05:20:47;97351.03;;;15.83;78.09
75146;BME280;63641;46.526;24.612;2023-07-24T05:23:15;97342.38;;;15.81;77.93
75146;BME280;63641;46.526;24.612;2023-07-24T05:25:41;97340.63;;;15.85;78.17
75146;BME280;63641;46.526;24.612;2023-07-24T05:28:09;97343.72;;;16.01;78.02
75146;BME280;63641;46.526;24.612;2023-07-24T05:30:36;97339.25;;;16.05;78.24
75146;BME280;63641;46.526;24.612;2023-07-24T05:33:02;97334.47;;;16.10;78.23
75146;BME280;63641;46.526;24.612;2023-07-24T05:35:29;97345.09;;;16.29;78.11
75146;BME280;63641;46.526;24.612;2023-07-24T05:37:56;97334.34;;;16.33;78.09
75146;BME280;63641;46.526;24.612;2023-07-24T05:40:23;97346.75;;;16.48;77.83
75146;BME280;63641;46.526;24.612;2023-07-24T05:42:50;97328.13;;;16.50;77.68
75146;BME280;63641;46.526;24.612;2023-07-24T05:45:17;97331.31;;;16.60;77.93
75146;BME280;63641;46.526;24.612;2023-07-24T05:47:45;97321.56;;;16.68;77.68
75146;BME280;63641;46.526;24.612;2023-07-24T05:50:12;97320.44;;;16.78;77.58
75146;BME280;63641;46.526;24.612;2023-07-24T05:52:40;97333.94;;;17.00;77.19
75146;BME280;63641;46.526;24.612;2023-07-24T05:55:08;97319.00;;;17.06;77.59
75146;BME280;63641;46.526;24.612;2023-07-24T05:57:35;97323.34;;;17.16;77.45
75146;BME280;63641;46.526;24.612;2023-07-24T06:00:03;97312.38;;;17.25;77.06
75146;BME280;63641;46.526;24.612;2023-07-24T06:02:31;97311.38;;;17.38;77.04
75146;BME280;63641;46.526;24.612;2023-07-24T06:04:58;97325.00;;;17.55;76.83
75146;BME280;63641;46.526;24.612;2023-07-24T06:07:25;97307.75;;;17.63;76.82
75146;BME280;63641;46.526;24.612;2023-07-24T06:09:53;97323.28;;;17.89;76.54
75146;BME280;63641;46.526;24.612;2023-07-24T06:12:19;97311.13;;;18.07;76.32
75146;BME280;63641;46.526;24.612;2023-07-24T06:14:46;97319.06;;;18.30;76.10
75146;BME280;63641;46.526;24.612;2023-07-24T06:17:13;97310.72;;;18.47;75.78
75146;BME280;63641;46.526;24.612;2023-07-24T06:19:40;97300.31;;;18.62;75.42
75146;BME280;63641;46.526;24.612;2023-07-24T06:22:07;97305.03;;;18.82;75.22
75146;BME280;63641;46.526;24.612;2023-07-24T06:24:34;97301.56;;;19.06;74.68
75146;BME280;63641;46.526;24.612;2023-07-24T06:27:01;97307.03;;;19.27;74.19
75146;BME280;63641;46.526;24.612;2023-07-24T06:29:28;97303.09;;;19.49;73.59
75146;BME280;63641;46.526;24.612;2023-07-24T06:31:55;97299.94;;;19.71;73.20
75146;BME280;63641;46.526;24.612;2023-07-24T06:34:22;97314.94;;;19.98;72.34
75146;BME280;63641;46.526;24.612;2023-07-24T06:36:48;97288.84;;;20.17;71.95
75146;BME280;63641;46.526;24.612;2023-07-24T06:39:15;97294.53;;;20.48;70.91
75146;BME280;63641;46.526;24.612;2023-07-24T06:41:42;97296.56;;;20.76;70.79
75146;BME280;63641;46.526;24.612;2023-07-24T06:44:09;97294.44;;;20.97;70.28
75146;BME280;63641;46.526;24.612;2023-07-24T06:46:36;97300.72;;;21.26;69.75
75146;BME280;63641;46.526;24.612;2023-07-24T06:49:03;97280.13;;;21.48;68.71
75146;BME280;63641;46.526;24.612;2023-07-24T06:51:30;97291.50;;;21.78;68.28
75146;BME280;63641;46.526;24.612;2023-07-24T06:53:56;97275.69;;;21.91;67.59
75146;BME280;63641;46.526;24.612;2023-07-24T06:56:23;97289.03;;;22.21;66.67
75146;BME280;63641;46.526;24.612;2023-07-24T06:58:50;97285.22;;;22.45;65.47
75146;BME280;63641;46.526;24.612;2023-07-24T07:01:18;97270.72;;;22.67;65.21
75146;BME280;63641;46.526;24.612;2023-07-24T07:03:45;97256.22;;;22.89;64.61
75146;BME280;63641;46.526;24.612;2023-07-24T07:06:11;97272.19;;;23.19;64.16
75146;BME280;63641;46.526;24.612;2023-07-24T07:08:41;97278.56;;;23.43;63.57
75146;BME280;63641;46.526;24.612;2023-07-24T07:11:08;97274.75;;;23.70;62.65
75146;BME280;63641;46.526;24.612;2023-07-24T07:13:35;97274.19;;;23.84;62.72
75146;BME280;63641;46.526;24.612;2023-07-24T07:16:07;97253.91;;;23.99;62.20
75146;BME280;63641;46.526;24.612;2023-07-24T07:18:34;97287.63;;;24.35;61.08
75146;BME280;63641;46.526;24.612;2023-07-24T07:21:01;97265.56;;;24.39;59.56
75146;BME280;63641;46.526;24.612;2023-07-24T07:23:27;97283.47;;;24.75;59.18
75146;BME280;63641;46.526;24.612;2023-07-24T07:25:54;97283.28;;;24.91;58.90
75146;BME280;63641;46.526;24.612;2023-07-24T07:28:21;97281.94;;;25.11;58.14
75146;BME280;63641;46.526;24.612;2023-07-24T07:30:49;97274.63;;;25.26;58.87
75146;BME280;63641;46.526;24.612;2023-07-24T07:33:16;97270.78;;;25.38;58.46
75146;BME280;63641;46.526;24.612;2023-07-24T07:35:43;97267.81;;;25.57;57.51
75146;BME280;63641;46.526;24.612;2023-07-24T07:38:10;97279.16;;;25.82;56.73
75146;BME280;63641;46.526;24.612;2023-07-24T07:40:37;97273.31;;;25.94;56.36
75146;BME280;63641;46.526;24.612;2023-07-24T07:43:06;97262.72;;;26.07;55.21
75146;BME280;63641;46.526;24.612;2023-07-24T07:45:33;97266.44;;;26.29;54.58
75146;BME280;63641;46.526;24.612;2023-07-24T07:48:00;97263.72;;;26.40;54.90
75146;BME280;63641;46.526;24.612;2023-07-24T07:50:27;97253.94;;;26.53;54.56
75146;BME280;63641;46.526;24.612;2023-07-24T07:52:53;97257.59;;;26.71;53.88
75146;BME280;63641;46.526;24.612;2023-07-24T07:55:20;97260.81;;;26.88;53.13
75146;BME280;63641;46.526;24.612;2023-07-24T07:57:47;97242.22;;;26.88;53.01
75146;BME280;63641;46.526;24.612;2023-07-24T08:00:14;97257.34;;;27.09;52.73
75146;BME280;63641;46.526;24.612;2023-07-24T08:02:41;97257.41;;;27.19;52.66
75146;BME280;63641;46.526;24.612;2023-07-24T08:05:10;97259.44;;;27.33;52.45
75146;BME280;63641;46.526;24.612;2023-07-24T08:07:45;97243.56;;;27.41;51.76
75146;BME280;63641;46.526;24.612;2023-07-24T08:10:12;97257.50;;;27.69;51.44
75146;BME280;63641;46.526;24.612;2023-07-24T08:12:43;97257.16;;;27.85;51.19
75146;BME280;63641;46.526;24.612;2023-07-24T08:15:10;97247.59;;;27.97;50.64
75146;BME280;63641;46.526;24.612;2023-07-24T08:17:38;97237.28;;;28.01;50.37
75146;BME280;63641;46.526;24.612;2023-07-24T08:20:05;97241.63;;;28.16;49.61
75146;BME280;63641;46.526;24.612;2023-07-24T08:22:33;97244.81;;;28.22;49.34
75146;BME280;63641;46.526;24.612;2023-07-24T08:25:00;97242.03;;;28.18;48.83
75146;BME280;63641;46.526;24.612;2023-07-24T08:27:27;97236.47;;;28.18;49.02
75146;BME280;63641;46.526;24.612;2023-07-24T08:29:55;97236.47;;;28.40;49.14
75146;BME280;63641;46.526;24.612;2023-07-24T08:32:22;97236.81;;;28.56;48.21
75146;BME280;63641;46.526;24.612;2023-07-24T08:34:49;97218.88;;;28.64;48.06
75146;BME280;63641;46.526;24.612;2023-07-24T08:37:17;97221.25;;;28.70;47.70
75146;BME280;63641;46.526;24.612;2023-07-24T08:39:44;97221.19;;;28.84;47.54
75146;BME280;63641;46.526;24.612;2023-07-24T08:42:11;97229.50;;;29.05;47.90
75146;BME280;63641;46.526;24.612;2023-07-24T08:44:39;97217.09;;;29.13;47.49
75146;BME280;63641;46.526;24.612;2023-07-24T08:47:09;97220.94;;;29.34;47.04
75146;BME280;63641;46.526;24.612;2023-07-24T08:49:39;97220.06;;;29.48;46.61
75146;BME280;63641;46.526;24.612;2023-07-24T08:52:10;97212.84;;;29.57;46.02
75146;BME280;63641;46.526;24.612;2023-07-24T08:54:48;97216.41;;;29.62;45.46
75146;BME280;63641;46.526;24.612;2023-07-24T08:57:16;97227.50;;;29.72;46.18
75146;BME280;63641;46.526;24.612;2023-07-24T08:59:43;97216.72;;;29.74;45.81
75146;BME280;63641;46.526;24.612;2023-07-24T09:02:10;97221.72;;;29.97;45.68
75146;BME280;63641;46.526;24.612;2023-07-24T09:04:37;97219.66;;;30.05;43.76
75146;BME280;63641;46.526;24.612;2023-07-24T09:07:04;97196.47;;;30.08;43.22
75146;BME280;63641;46.526;24.612;2023-07-24T09:09:31;97227.59;;;30.06;42.45
75146;BME280;63641;46.526;24.612;2023-07-24T09:11:58;97195.13;;;29.82;42.61
75146;BME280;63641;46.526;24.612;2023-07-24T09:14:28;97224.41;;;30.04;43.05
75146;BME280;63641;46.526;24.612;2023-07-24T09:17:09;97209.19;;;30.16;43.08
75146;BME280;63641;46.526;24.612;2023-07-24T09:19:38;97210.69;;;30.28;43.12
75146;BME280;63641;46.526;24.612;2023-07-24T09:22:12;97195.03;;;30.34;42.61
75146;BME280;63641;46.526;24.612;2023-07-24T09:24:52;97194.50;;;30.50;42.24
75146;BME280;63641;46.526;24.612;2023-07-24T09:27:20;97202.34;;;30.59;41.45
75146;BME280;63641;46.526;24.612;2023-07-24T09:29:48;97190.41;;;30.58;41.00
75146;BME280;63641;46.526;24.612;2023-07-24T09:32:22;97183.59;;;30.59;40.56
75146;BME280;63641;46.526;24.612;2023-07-24T09:34:50;97187.94;;;30.64;40.14
75146;BME280;63641;46.526;24.612;2023-07-24T09:37:27;97182.09;;;30.85;39.79
75146;BME280;63641;46.526;24.612;2023-07-24T09:39:54;97183.63;;;30.93;40.50
75146;BME280;63641;46.526;24.612;2023-07-24T09:42:31;97163.47;;;31.06;39.80
75146;BME280;63641;46.526;24.612;2023-07-24T09:45:00;97164.94;;;31.14;38.69
75146;BME280;63641;46.526;24.612;2023-07-24T09:47:26;97168.22;;;31.09;38.25
75146;BME280;63641;46.526;24.612;2023-07-24T09:50:13;97147.53;;;31.02;38.87
75146;BME280;63641;46.526;24.612;2023-07-24T09:52:40;97149.50;;;31.06;38.47
75146;BME280;63641;46.526;24.612;2023-07-24T09:55:15;97153.63;;;31.24;38.82
75146;BME280;63641;46.526;24.612;2023-07-24T09:57:46;97135.47;;;31.09;38.05
75146;BME280;63641;46.526;24.612;2023-07-24T10:00:13;97139.25;;;31.22;38.32
75146;BME280;63641;46.526;24.612;2023-07-24T10:02:41;97132.78;;;31.29;38.70
75146;BME280;63641;46.526;24.612;2023-07-24T10:05:08;97125.59;;;31.28;37.59
75146;BME280;63641;46.526;24.612;2023-07-24T10:07:35;97155.72;;;31.44;37.20
75146;BME280;63641;46.526;24.612;2023-07-24T10:10:03;97136.16;;;31.44;36.54
75146;BME280;63641;46.526;24.612;2023-07-24T10:12:31;97131.72;;;31.46;36.80
75146;BME280;63641;46.526;24.612;2023-07-24T10:14:59;97145.47;;;31.61;36.09
75146;BME280;63641;46.526;24.612;2023-07-24T10:17:37;97138.31;;;31.60;36.61
75146;BME280;63641;46.526;24.612;2023-07-24T10:20:06;97148.88;;;31.72;36.51
75146;BME280;63641;46.526;24.612;2023-07-24T10:22:33;97141.22;;;31.76;36.09
75146;BME280;63641;46.526;24.612;2023-07-24T10:25:01;97130.47;;;31.74;35.83
75146;BME280;63641;46.526;24.612;2023-07-24T10:27:28;97122.00;;;31.78;35.25
75146;BME280;63641;46.526;24.612;2023-07-24T10:30:03;97133.56;;;31.80;34.40
75146;BME280;63641;46.526;24.612;2023-07-24T10:32:48;97123.94;;;31.81;34.45
75146;BME280;63641;46.526;24.612;2023-07-24T10:35:21;97140.81;;;32.01;34.49
75146;BME280;63641;46.526;24.612;2023-07-24T10:37:59;97121.94;;;32.05;34.03
75146;BME280;63641;46.526;24.612;2023-07-24T10:40:27;97125.75;;;32.15;34.00
75146;BME280;63641;46.526;24.612;2023-07-24T10:43:04;97120.28;;;32.28;34.22
75146;BME280;63641;46.526;24.612;2023-07-24T10:45:52;97117.44;;;32.31;34.70
75146;BME280;63641;46.526;24.612;2023-07-24T10:48:21;97106.75;;;32.26;34.76
75146;BME280;63641;46.526;24.612;2023-07-24T10:50:50;97097.19;;;32.23;34.71
75146;BME280;63641;46.526;24.612;2023-07-24T10:53:21;97096.25;;;32.30;35.24
75146;BME280;63641;46.526;24.612;2023-07-24T10:55:50;97087.16;;;32.26;34.26
75146;BME280;63641;46.526;24.612;2023-07-24T10:58:17;97093.47;;;32.30;33.48
75146;BME280;63641;46.526;24.612;2023-07-24T11:00:44;97094.16;;;32.34;32.41
75146;BME280;63641;46.526;24.612;2023-07-24T11:03:14;97080.44;;;32.40;32.20
75146;BME280;63641;46.526;24.612;2023-07-24T11:05:44;97082.72;;;32.49;32.04
75146;BME280;63641;46.526;24.612;2023-07-24T11:08:19;97073.94;;;32.46;32.45
75146;BME280;63641;46.526;24.612;2023-07-24T11:10:50;97078.97;;;32.55;32.04
75146;BME280;63641;46.526;24.612;2023-07-24T11:13:23;97074.22;;;32.52;31.86
75146;BME280;63641;46.526;24.612;2023-07-24T11:15:50;97075.97;;;32.62;31.96
75146;BME280;63641;46.526;24.612;2023-07-24T11:18:19;97069.19;;;32.63;31.94
75146;BME280;63641;46.526;24.612;2023-07-24T11:21:03;97063.84;;;32.69;31.93
75146;BME280;63641;46.526;24.612;2023-07-24T11:23:29;97069.28;;;32.76;31.54
75146;BME280;63641;46.526;24.612;2023-07-24T11:25:56;97073.84;;;32.86;31.78
75146;BME280;63641;46.526;24.612;2023-07-24T11:28:23;97058.69;;;32.67;31.68
75146;BME280;63641;46.526;24.612;2023-07-24T11:30:49;97048.88;;;32.59;31.85
75146;BME280;63641;46.526;24.612;2023-07-24T11:33:19;97070.31;;;32.66;31.31
75146;BME280;63641;46.526;24.612;2023-07-24T11:35:46;97062.97;;;32.72;31.38
75146;BME280;63641;46.526;24.612;2023-07-24T11:38:13;97056.41;;;32.79;31.55
75146;BME280;63641;46.526;24.612;2023-07-24T11:40:44;97022.34;;;32.64;31.45
75146;BME280;63641;46.526;24.612;2023-07-24T11:43:18;97059.31;;;32.91;32.13
75146;BME280;63641;46.526;24.612;2023-07-24T11:45:46;97046.63;;;32.87;31.67
75146;BME280;63641;46.526;24.612;2023-07-24T11:48:15;97050.84;;;32.95;31.61
75146;BME280;63641;46.526;24.612;2023-07-24T11:50:47;97033.06;;;32.85;31.70
75146;BME280;63641;46.526;24.612;2023-07-24T11:53:29;97033.13;;;32.82;32.01
75146;BME280;63641;46.526;24.612;2023-07-24T11:55:58;97029.03;;;32.86;32.44
75146;BME280;63641;46.526;24.612;2023-07-24T11:58:29;97031.91;;;32.83;32.30
75146;BME280;63641;46.526;24.612;2023-07-24T12:00:56;97025.31;;;32.73;32.64
75146;BME280;63641;46.526;24.612;2023-07-24T12:03:28;97036.38;;;32.80;33.08
75146;BME280;63641;46.526;24.612;2023-07-24T12:05:55;97036.19;;;32.87;32.41
75146;BME280;63641;46.526;24.612;2023-07-24T12:08:33;97030.16;;;32.89;32.42
75146;BME280;63641;46.526;24.612;2023-07-24T12:11:01;97022.56;;;32.89;31.97
75146;BME280;63641;46.526;24.612;2023-07-24T12:13:28;97013.00;;;32.87;32.15
75146;BME280;63641;46.526;24.612;2023-07-24T12:15:56;97013.63;;;32.94;32.65
75146;BME280;63641;46.526;24.612;2023-07-24T12:18:25;97019.06;;;33.02;32.92
75146;BME280;63641;46.526;24.612;2023-07-24T12:20:52;97006.63;;;33.03;32.91
75146;BME280;63641;46.526;24.612;2023-07-24T12:23:18;97004.88;;;33.09;33.39
75146;BME280;63641;46.526;24.612;2023-07-24T12:25:45;96971.97;;;32.97;33.05
75146;BME280;63641;46.526;24.612;2023-07-24T12:28:12;96994.53;;;33.22;33.38
75146;BME280;63641;46.526;24.612;2023-07-24T12:30:40;96979.28;;;33.23;33.08
75146;BME280;63641;46.526;24.612;2023-07-24T12:33:07;96993.31;;;33.23;33.40
75146;BME280;63641;46.526;24.612;2023-07-24T12:35:34;96995.50;;;33.15;33.47
75146;BME280;63641;46.526;24.612;2023-07-24T12:38:01;96990.97;;;33.22;32.74
75146;BME280;63641;46.526;24.612;2023-07-24T12:40:28;96955.47;;;33.15;32.51
75146;BME280;63641;46.526;24.612;2023-07-24T12:42:55;96976.84;;;33.25;32.04
75146;BME280;63641;46.526;24.612;2023-07-24T12:45:22;96980.84;;;33.24;32.22
75146;BME280;63641;46.526;24.612;2023-07-24T12:47:49;96964.22;;;33.17;32.61
75146;BME280;63641;46.526;24.612;2023-07-24T12:50:16;96964.22;;;33.17;32.08
75146;BME280;63641;46.526;24.612;2023-07-24T12:52:42;96955.56;;;33.11;32.15
75146;BME280;63641;46.526;24.612;2023-07-24T12:55:10;96962.06;;;33.08;31.83
75146;BME280;63641;46.526;24.612;2023-07-24T12:57:37;96966.41;;;33.09;31.68
75146;BME280;63641;46.526;24.612;2023-07-24T13:00:04;96957.31;;;33.05;31.73